Flight Track Log - Related Links

Times and Time Zones

All times are in EDT time to prevent confusion due to time zone crossing. See the N629SA flight status page for this flight to view local times or setup timezone preferences in your user account.

Time Position Orientation Groundspeed Altitude Reporting Facility
EDT Latitude Longitude Course Direction KTS MPH feet Rate Location/Type
Wed 07:31:00 PM 26.3679 -81.7714 355° North  Level Estimated
Wed 07:32:00 PM 26.4036 -81.7760 353° North  Level FlightAware Approximate
Wed 07:33:00 PM 26.4393 -81.7807 353° North  Level FlightAware Approximate
Wed 07:34:00 PM 26.4750 -81.7853 353° North  Level FlightAware Approximate
Wed 07:35:00 PM 26.5107 -81.7899 353° North  Level FlightAware Approximate
Wed 07:36:00 PM 26.5463 -81.7945 353° North  Level FlightAware Approximate
Wed 07:37:00 PM 26.5820 -81.7992 353° North  Level FlightAware Approximate
Wed 07:38:00 PM 26.6177 -81.8038 353° North  Level FlightAware Approximate
Wed 07:39:00 PM 26.6534 -81.8084 353° North  Level FlightAware Approximate
Wed 07:40:00 PM 26.6891 -81.8131 353° North  Level FlightAware Approximate
Wed 07:41:00 PM 26.7247 -81.8177 353° North  Level FlightAware Approximate
Wed 07:42:00 PM 26.7604 -81.8223 353° North  Level FlightAware Approximate
Wed 07:42:44 PM 26.7664 -81.8839 354° North 150 173 8,000  Level Miami Center
Wed 07:43:00 PM 26.7961 -81.8270 353° North  Level FlightAware Approximate
Wed 07:43:44 PM 26.8081 -81.8858 358° North 150 173 8,000  Level Miami Center
Wed 07:44:00 PM 26.8318 -81.8316 353° North  Level FlightAware Approximate
Wed 07:44:44 PM 26.8478 -81.8897 355° North 150 173 8,000  Level Miami Center
Wed 07:45:00 PM 26.8675 -81.8363 353° North  Level FlightAware Approximate
Wed 07:45:44 PM 26.8914 -81.8939 355° North 150 173 8,000  Level Miami Center
Wed 07:46:00 PM 26.9031 -81.8409 353° North  Level FlightAware Approximate
Wed 07:46:44 PM 26.9289 -81.8981 354° North 150 173 8,000  Level Miami Center
Wed 07:47:00 PM 26.9390 -81.8395 354° North  Level Estimated
Wed 07:47:44 PM 26.9706 -81.8997 358° North 150 173 8,000  Level Miami Center
Wed 07:48:44 PM 27.0017 -81.9036 354° North 150 173 8,000 -50 Level Miami Center
Wed 07:49:44 PM 27.0475 -81.9056 358° North 150 173 7,900 -50 Descending Miami Center
Wed 07:50:44 PM 27.0892 -81.9097 355° North 145 167 7,900  Level Miami Center
Wed 07:51:44 PM 27.1308 -81.9114 358° North 140 161 7,900  Level Miami Center
Wed 07:52:44 PM 27.1703 -81.9156 355° North 140 161 7,900  Level Miami Center
Wed 07:53:44 PM 27.2119 -81.9172 358° North 140 161 7,900  Level Miami Center
Wed 07:54:44 PM 27.2514 -81.9214 355° North 140 161 7,900  Level Miami Center
Wed 07:55:44 PM 27.2931 -81.9256 355° North 140 161 7,900  Level Miami Center
Wed 07:56:44 PM 27.3347 -81.9297 355° North 140 161 7,900  Level Miami Center
Wed 07:57:44 PM 27.3764 -81.9314 358° North 140 161 7,900  Level Miami Center
Wed 07:58:44 PM 27.4203 -81.9333 358° North 140 161 7,900  Level Miami Center
Wed 07:59:44 PM 27.4617 -81.9375 355° North 140 161 7,900  Level Miami Center
Wed 08:00:44 PM 27.5033 -81.9417 355° North 140 161 7,900 50 Level Miami Center
Wed 08:01:44 PM 27.5492 -81.9439 358° North 145 167 8,000 50 Climbing Miami Center
Wed 08:02:44 PM 27.5889 -81.9456 358° North 145 167 8,000  Level Miami Center
Wed 08:03:44 PM 27.6303 -81.9497 355° North 140 161 8,000  Level Miami Center
Wed 08:04:44 PM 27.6761 -81.9519 358° North 145 167 8,000  Level Miami Center
Wed 08:05:44 PM 27.7178 -81.9536 358° North 145 167 8,000  Level Miami Center
Wed 08:06:44 PM 27.7594 -81.9578 355° North 145 167 8,000  Level Miami Center
Wed 08:07:44 PM 27.7989 -81.9597 358° North 145 167 8,000 -50 Level Miami Center
Wed 08:08:44 PM 27.8447 -81.9617 358° North 150 173 7,900 -50 Descending Miami Center
Wed 08:09:44 PM 27.8864 -81.9636 358° North 150 173 7,900 58 Level Miami Center
Wed 08:10:28 PM 27.9167 -81.9667 355° North 145 167 8,000 58 Climbing Tampa TRACON
Wed 08:11:28 PM 27.9500 -81.9667 360° North 144 166 8,000  Level Tampa TRACON
Wed 08:12:29 PM 28.0000 -81.9667 360° North 143 165 8,000  Level Tampa TRACON
Wed 08:13:35 PM 28.0500 -81.9667 360° North 146 168 8,000  Level Tampa TRACON
Wed 08:14:41 PM 28.0833 -81.9833 336° Northwest 144 166 8,000  Level Tampa TRACON
Wed 08:15:41 PM 28.1333 -81.9833 360° North 145 167 8,000  Level Tampa TRACON
Wed 08:16:35 PM 28.1667 -81.9833 360° North 145 167 8,000  Level Tampa TRACON
Wed 08:17:29 PM 28.2000 -82.0000 336° Northwest 144 166 8,000  Level Tampa TRACON
Wed 08:18:29 PM 28.2333 -82.0000 360° North 143 165 8,000  Level Tampa TRACON
Wed 08:19:29 PM 28.2667 -82.0167 336° Northwest 141 162 8,000  Level Tampa TRACON
Wed 08:20:29 PM 28.3167 -82.0333 344° North 142 163 8,000  Level Tampa TRACON
Wed 08:21:30 PM 28.3500 -82.0333 360° North 141 162 8,000  Level Tampa TRACON
Wed 08:22:30 PM 28.3833 -82.0500 336° Northwest 145 167 8,000  Level Tampa TRACON
Wed 08:23:30 PM 28.4333 -82.0500 360° North 144 166 8,000  Level Tampa TRACON
Wed 08:24:30 PM 28.4667 -82.0667 336° Northwest 143 165 8,000  Level Tampa TRACON
Wed 08:25:29 PM 28.5022 -82.0775 345° North 141 162 8,000  Level Jacksonville Center
Wed 08:26:36 PM 28.5481 -82.0867 350° North 141 162 8,000  Level Jacksonville Center
Wed 08:27:31 PM 28.5814 -82.0936 350° North 141 162 8,000  Level Jacksonville Center
Wed 08:28:32 PM 28.6233 -82.1028 349° North 143 165 8,000  Level Jacksonville Center
Wed 08:29:33 PM 28.6631 -82.1000 North 147 169 8,000  Level Jacksonville Center
Wed 08:30:33 PM 28.7025 -82.0878 15° North 150 173 8,000  Level Jacksonville Center
Wed 08:31:34 PM 28.7442 -82.0803 North 151 174 8,000  Level Jacksonville Center
Wed 08:32:35 PM 28.7839 -82.0706 12° North 150 173 8,000  Level Jacksonville Center
Wed 08:33:36 PM 28.8275 -82.0608 11° North 148 170 8,000  Level Jacksonville Center
Wed 08:34:37 PM 28.8714 -82.0508 11° North 147 169 8,000  Level Jacksonville Center
Wed 08:35:37 PM 28.9108 -82.0433 North 147 169 8,000  Level Jacksonville Center
Wed 08:36:38 PM 28.9506 -82.0361 North 148 170 8,000  Level Jacksonville Center
Wed 08:37:39 PM 28.9922 -82.0261 12° North 149 171 8,000  Level Jacksonville Center
Wed 08:38:40 PM 29.0297 -82.0164 13° North 148 170 8,000  Level Jacksonville Center
Wed 08:39:41 PM 29.0756 -82.0064 11° North 151 174 8,000  Level Jacksonville Center
Wed 08:40:48 PM 29.1214 -81.9989 North 153 176 8,000  Level Jacksonville Center
Wed 08:41:43 PM 29.1589 -81.9889 13° North 151 174 8,000  Level Jacksonville Center
Wed 08:42:43 PM 29.2006 -81.9792 12° North 150 173 8,000  Level Jacksonville Center
Wed 08:43:44 PM 29.2403 -81.9692 12° North 149 171 8,000  Level Jacksonville Center
Wed 08:44:45 PM 29.2839 -81.9617 North 149 171 8,000  Level Jacksonville Center
Wed 08:45:40 PM 29.3214 -81.9542 10° North 149 171 8,000  Level Jacksonville Center
Wed 08:46:47 PM 29.3653 -81.9442 11° North 148 170 8,000  Level Jacksonville Center
Wed 08:47:47 PM 29.4050 -81.9342 12° North 148 170 8,000  Level Jacksonville Center
Wed 08:48:48 PM 29.4467 -81.9244 11° North 148 170 8,000  Level Jacksonville Center
Wed 08:50:01 PM 29.4944 -81.9119 13° North 147 169 8,000  Level Jacksonville Center
Wed 08:50:50 PM 29.5300 -81.9069 North 148 170 8,000  Level Jacksonville Center
Wed 08:51:50 PM 29.5694 -81.8992 10° North 147 169 8,000  Level Jacksonville Center
Wed 08:52:51 PM 29.6111 -81.8869 14° North 148 170 8,000  Level Jacksonville Center
Wed 08:53:46 PM 29.6486 -81.8794 10° North 146 168 8,000  Level Jacksonville Center
Wed 08:54:47 PM 29.6903 -81.8694 12° North 145 167 8,000  Level Jacksonville Center
Wed 08:55:47 PM 29.7278 -81.8642 North 145 167 8,000  Level Jacksonville Center
Wed 08:56:54 PM 29.7739 -81.8542 11° North 144 166 8,000  Level Jacksonville Center
Wed 08:57:55 PM 29.8133 -81.8442 12° North 144 166 8,000 -49 Level Jacksonville Center
Wed 08:58:56 PM 29.8531 -81.8342 12° North 144 166 7,900 -259 Descending Jacksonville Center
Wed 08:59:51 PM 29.8906 -81.8264 10° North 151 174 7,500 -417 Descending Jacksonville Center
Wed 09:00:51 PM 29.9322 -81.8164 12° North 151 174 7,100 -446 Descending Jacksonville Center
Wed 09:01:52 PM 29.9739 -81.8089 North 149 171 6,600 -492 Descending Jacksonville Center
Wed 09:02:53 PM 30.0156 -81.7986 12° North 149 171 6,100 -443 Descending Jacksonville Center
Wed 09:03:54 PM 30.0531 -81.7886 13° North 139 160 5,700 -443 Descending Jacksonville Center
Wed 09:04:55 PM 30.0906 -81.7811 10° North 134 154 5,200 -397 Descending Jacksonville Center
Wed 09:05:55 PM 30.1236 -81.7664 21° North 128 147 4,900 -142 Descending Jacksonville Center
Wed 09:07:02 PM 30.1592 -81.7514 20° North 119 137 4,900  Level Jacksonville Center
Wed 09:08:03 PM 30.1903 -81.7392 19° North 119 137 4,900 49 Level Jacksonville Center
Wed 09:09:04 PM 30.2194 -81.7267 20° North 119 137 5,000 49 Climbing Jacksonville Center
Wed 09:10:05 PM 30.2528 -81.7119 21° North 119 137 5,000  Level Jacksonville Center
Wed 09:11:06 PM 30.2858 -81.6969 21° North 120 138 5,000  Level Jacksonville Center
Wed 09:12:13 PM 30.3214 -81.6869 14° North 122 140 5,000 -236 Level Jacksonville Center
Wed 09:13:13 PM 30.3503 -81.6553 43° Northeast 134 154 4,500 -496 Descending Jacksonville Center
Wed 09:14:14 PM 30.3750 -81.6236 48° Northeast 136 157 4,000 -310 Descending Jacksonville Center
Wed 09:15:09 PM 30.3997 -81.5969 43° Northeast 134 154 3,900  Descending Jacksonville Center
Wed 09:16:10 PM 30.4225 -81.5653 50° Northeast 130 150 4,000 49 Climbing Jacksonville Center
Wed 09:17:11 PM 30.4472 -81.5336 48° Northeast 131 151 4,000 -50 Level Jacksonville Center
Wed 09:18:11 PM 30.4783 -81.5186 23° Northeast 120 138 3,900 -298 Descending Jacksonville Center
Wed 09:19:12 PM 30.5181 -81.5108 10° North 133 153 3,400 -541 Descending Jacksonville Center
Wed 09:20:13 PM 30.5472 -81.5272 334° Northwest 144 166 2,800 -927 Descending Jacksonville Center
Wed 09:21:02 PM 30.5353 -81.5614 248° West 166 191 1,700 -828 Descending Jacksonville Center
Wed 09:22:09 PM 30.5231 -81.6072 253° West 108 124 1,200 -541 Descending Jacksonville Center
Wed 09:23:15 PM 30.5150 -81.6386 253° West 96 110 500 -520 Descending Jacksonville Center
Wed 09:24:16 PM 30.5069 -81.6678 252° West 86 99 100 -393 Descending Jacksonville Center
Wed 09:26:00 PM 30.4833 -81.6833 277° West  Level FlightAware Approximate

Login

Don't have an account? Register now (free) for customized features, flight alerts, and more!